Aviation Digital Data Service (ADDS)

Output produced by METARs form (2119 UTC 22 December 2014)
found at http://www.aviationweather.gov/adds/metars/
 
KMIV 222054Z AUTO 07007KT 10SM -RA FEW070 OVC100 07/03 A3017 RMK AO2 RAB33 SLP216 P0000 60000 T00670033 58014
KMIV 222023Z 2220/2318 06005KT P6SM VCSH SCT025 OVC060 
     TEMPO 2221/2223 6SM -RA BR BKN025 OVC040 
     FM222300 07005KT 5SM -RA BKN020 OVC035 
     FM230100 07005KT 3SM -RA BR BKN006 OVC015 
     FM230400 06005KT 2SM -RA BR OVC004 
     FM231700 09005KT 5SM BR OVC006